• Join FlightAware (Why Join?)
  • Login
  • US Flag GB Flag 
18:21 EDT


 

Airport Tracker/Info


-or-


 

Live Flight TrackerFlight Track Log ✈ XSR335 ✈ 25-Jun-2013 ✈ KAGC - KPWA

Flight Track Log - Related Links

Times and Time Zones

All times are in EDT time to prevent confusion due to time zone crossing. See the XSR335 flight status page for this flight to view local times or setup timezone preferences in your user account.

Time Position Orientation Groundspeed Altitude Reporting Facility
EDT Latitude Longitude Course Direction KTS MPH feet Rate Location/Type
11:46 40.0650 -80.2340 216° Southwest 313 360 14,100  Level FlightAware
11:47 40.0230 -80.2740 216° Southwest 313 360 14,100  Level FlightAware
11:47 39.9860 -80.3090 216° Southwest 313 360 14,100 2,700 Level FlightAware
11:50 39.7850 -80.5040 217° Southwest 338 389 22,300 3,000 Climbing FlightAware
11:51 39.7310 -80.5550 216° Southwest 341 392 23,500 1,020 Climbing FlightAware
11:51 39.6830 -80.6070 220° Southwest 339 390 23,800 1,440 Climbing FlightAware
11:52 39.6810 -80.7120 269° West 348 400 25,600 1,920 Climbing FlightAware
11:53 39.6680 -80.7950 259° West 358 412 26,400 1,200 Climbing FlightAware
11:53 39.6530 -80.8920 259° West 366 421 27,300 1,200 Climbing FlightAware
11:54 39.6400 -80.9780 259° West 372 428 28,100 1,140 Climbing FlightAware
11:55 39.6280 -81.0610 259° West 380 437 28,800 960 Climbing FlightAware
11:56 39.6120 -81.1650 259° West 388 447 29,500 900 Climbing FlightAware
11:56 39.5970 -81.2630 259° West 395 455 30,200 1,020 Climbing FlightAware
11:57 39.5820 -81.3640 259° West 400 460 31,000 1,020 Climbing FlightAware
11:58 39.5670 -81.4630 259° West 404 465 31,700 960 Climbing FlightAware
11:58 39.5510 -81.5650 259° West 407 468 32,400 960 Climbing FlightAware
11:59 39.5360 -81.6600 258° West 410 472 33,100 960 Climbing FlightAware
12:00 39.5200 -81.7580 258° West 412 474 33,700 960 Climbing FlightAware
12:00 39.5030 -81.8680 259° West 413 475 34,500 1,020 Climbing FlightAware
12:01 39.4870 -81.9670 258° West 413 475 35,200 960 Climbing FlightAware
12:02 39.4710 -82.0720 259° West 414 476 35,900 960 Climbing FlightAware
12:03 39.4550 -82.1700 258° West 413 475 36,600 960 Climbing FlightAware
12:03 39.4380 -82.2750 258° West 413 475 37,300 960 Climbing FlightAware
12:04 39.4210 -82.3750 258° West 411 473 38,000 960 Climbing FlightAware
12:05 39.4000 -82.5090 259° West 405 466 38,900 900 Climbing FlightAware
12:06 39.3840 -82.6030 258° West 401 461 39,500 660 Climbing FlightAware
12:06 39.3670 -82.7060 258° West 405 466 39,900 300 Climbing FlightAware
12:07 39.3510 -82.8030 258° West 415 478 40,000 60 Climbing FlightAware
12:08 39.3340 -82.9040 258° West 425 489 40,000  Level FlightAware
12:08 39.3150 -83.0150 258° West 434 499 40,000  Level FlightAware
12:09 39.2970 -83.1220 258° West 433 498 40,000  Level FlightAware
12:10 39.2790 -83.2300 258° West 430 495 40,000  Level FlightAware
12:10 39.2610 -83.3310 257° West 431 496 40,000  Level FlightAware
12:11 39.2450 -83.4260 258° West 431 496 40,000  Level FlightAware
12:12 39.2270 -83.5320 258° West 431 496 40,000  Level FlightAware
12:13 39.2050 -83.6530 257° West 430 495 40,000  Level FlightAware
12:13 39.1870 -83.7570 257° West 431 496 40,000  Level FlightAware
12:14 39.1690 -83.8580 257° West 430 495 40,000  Level FlightAware
12:16 39.1050 -84.2180 257° West 426 490 40,000  Level FlightAware
12:17 39.0870 -84.3180 257° West 426 490 40,000  Level FlightAware
12:18 39.0680 -84.4210 257° West 426 490 40,000  Level FlightAware
12:18 39.0490 -84.5230 257° West 425 489 40,000  Level FlightAware
12:19 39.0310 -84.6240 257° West 424 488 40,000  Level FlightAware
12:20 39.0140 -84.7160 257° West 424 488 40,000  Level FlightAware
12:21 38.9930 -84.8280 256° West 422 486 40,000  Level FlightAware
12:21 38.9690 -84.9610 257° West 421 484 40,000  Level FlightAware
12:22 38.9520 -85.0570 257° West 419 482 40,000  Level FlightAware
12:23 38.9320 -85.1660 257° West 419 482 40,000  Level FlightAware
12:24 38.9120 -85.2700 256° West 421 484 40,000  Level FlightAware
12:24 38.8930 -85.3750 257° West 422 486 40,000  Level FlightAware
12:25 38.8750 -85.4720 257° West 422 486 40,000  Level FlightAware
12:26 38.8490 -85.6080 256° West 422 486 40,000  Level FlightAware
12:27 38.8310 -85.7050 257° West 422 486 40,000  Level FlightAware
12:27 38.8090 -85.8190 256° West 422 486 40,000  Level FlightAware
12:28 38.7900 -85.9190 256° West 421 484 40,000  Level FlightAware
12:29 38.7700 -86.0210 256° West 421 484 40,000  Level FlightAware
12:29 38.7500 -86.1290 257° West 420 483 40,000  Level FlightAware
12:30 38.7330 -86.2150 256° West 419 482 40,000  Level FlightAware
12:31 38.7040 -86.3610 256° West 417 480 40,000  Level FlightAware
12:32 38.6870 -86.4490 256° West 417 480 40,000  Level FlightAware
12:32 38.6650 -86.5640 256° West 417 480 40,000  Level FlightAware
12:33 38.6440 -86.6660 255° West 417 480 40,000  Level FlightAware
12:34 38.6250 -86.7610 256° West 418 481 40,000  Level FlightAware
12:35 38.6060 -86.8580 256° West 419 482 40,000  Level FlightAware
12:35 38.5860 -86.9550 255° West 419 482 40,000  Level FlightAware
12:36 38.5650 -87.0610 256° West 418 481 40,000  Level FlightAware
12:37 38.5450 -87.1600 256° West 418 481 40,000  Level FlightAware
12:37 38.5250 -87.2560 255° West 418 481 40,000  Level FlightAware
12:38 38.5030 -87.3640 255° West 419 482 40,000  Level FlightAware
12:39 38.4850 -87.4510 255° West 420 483 40,000  Level FlightAware
12:39 38.4610 -87.5680 255° West 421 484 40,000  Level FlightAware
12:40 38.4400 -87.6660 255° West 422 486 40,000  Level FlightAware
12:41 38.4190 -87.7670 255° West 422 486 40,000  Level FlightAware
12:42 38.3970 -87.8730 255° West 423 487 40,000  Level FlightAware
12:42 38.3790 -87.9570 255° West 422 486 40,000  Level FlightAware
12:43 38.3550 -88.0720 255° West 420 483 40,000  Level FlightAware
12:44 38.3340 -88.1690 255° West 421 484 40,000  Level FlightAware
12:44 38.3120 -88.2720 255° West 422 486 40,000  Level FlightAware
12:45 38.2840 -88.3710 250° West 425 489 40,000  Level FlightAware
12:46 38.2420 -88.4600 239° Southwest 424 488 40,000  Level FlightAware
12:46 38.1960 -88.5550 238° Southwest 424 488 40,000  Level FlightAware
12:47 38.1560 -88.6360 238° Southwest 426 490 40,000  Level FlightAware
12:48 38.1110 -88.7300 239° Southwest 426 490 40,000  Level FlightAware
12:49 38.0710 -88.8120 238° Southwest 426 490 40,000  Level FlightAware
12:49 38.0260 -88.8940 235° Southwest 429 494 40,000  Level FlightAware
12:50 37.9760 -88.9780 233° Southwest 430 495 40,000  Level FlightAware
12:51 37.9250 -89.0720 235° Southwest 427 491 40,000  Level FlightAware
12:51 37.9010 -89.1730 253° West 419 482 40,000  Level FlightAware
12:52 37.8800 -89.2770 256° West 421 484 40,000  Level FlightAware
12:53 37.8600 -89.3760 256° West 423 487 40,000  Level FlightAware
12:53 37.8430 -89.4590 255° West 423 487 40,000  Level FlightAware
12:54 37.8190 -89.5790 256° West 428 493 40,000  Level FlightAware
12:55 37.8010 -89.6670 256° West 428 493 40,000  Level FlightAware
12:56 37.7780 -89.7840 256° West 431 496 40,000  Level FlightAware
12:56 37.7510 -89.9170 256° West 431 496 40,000  Level FlightAware
12:57 37.7310 -90.0110 255° West 431 496 40,000  Level FlightAware
12:58 37.7070 -90.1290 256° West 431 496 40,000  Level FlightAware
12:59 37.6750 -90.2820 255° West 432 497 40,000  Level FlightAware
13:00 37.6570 -90.3670 255° West 432 497 40,000  Level FlightAware
13:00 37.6400 -90.4440 254° West 432 497 40,000  Level FlightAware
13:01 37.6140 -90.5680 255° West 432 497 40,000  Level FlightAware
13:02 37.5980 -90.6420 255° West 432 497 40,000  Level FlightAware
13:03 37.5750 -90.7520 255° West 432 497 40,000  Level FlightAware
13:04 37.5530 -90.8540 255° West 432 497 40,000  Level FlightAware
13:04 37.5370 -90.9300 255° West 432 497 40,000  Level FlightAware
13:05 37.5170 -91.0250 255° West 432 497 40,000  Level FlightAware
13:06 37.4570 -91.3060 255° West 435 501 40,000  Level FlightAware
13:07 37.4300 -91.4290 255° West 433 498 40,000  Level FlightAware
13:07 37.4080 -91.5270 254° West 431 496 40,000  Level FlightAware
13:08 37.3860 -91.6260 254° West 429 494 40,000  Level FlightAware
13:09 37.3650 -91.7220 255° West 428 493 40,000  Level FlightAware
13:10 37.3410 -91.8270 254° West 427 491 40,000  Level FlightAware
13:10 37.3200 -91.9210 254° West 426 490 40,000  Level FlightAware
13:11 37.2890 -92.0610 254° West 424 488 40,000  Level FlightAware
13:12 37.2660 -92.1620 254° West 423 487 40,000  Level FlightAware
13:13 37.2450 -92.2550 254° West 424 488 40,000  Level FlightAware
13:13 37.2210 -92.3600 254° West 425 489 40,000  Level FlightAware
13:14 37.1980 -92.4590 254° West 427 491 40,000  Level FlightAware
13:14 37.1830 -92.5260 254° West 427 491 40,000  Level FlightAware
13:16 37.1230 -92.7860 254° West 429 494 40,000  Level FlightAware
13:17 37.1010 -92.8790 254° West 428 493 40,000  Level FlightAware
13:18 37.0790 -92.9730 254° West 428 493 40,000  Level FlightAware
13:18 37.0530 -93.0840 254° West 425 489 40,000  Level FlightAware
13:19 37.0300 -93.1810 253° West 422 486 40,000  Level FlightAware
13:20 37.0090 -93.2670 253° West 420 483 40,000  Level FlightAware
13:20 36.9830 -93.3760 253° West 418 481 40,000  Level FlightAware
13:21 36.9630 -93.4610 254° West 418 481 40,000  Level FlightAware
13:22 36.9370 -93.5680 253° West 418 481 40,000  Level FlightAware
13:23 36.9140 -93.6630 253° West 417 480 40,000  Level FlightAware
13:23 36.8920 -93.7570 254° West 417 480 40,000  Level FlightAware
13:24 36.8670 -93.8590 253° West 418 481 40,000  Level FlightAware
13:25 36.8430 -93.9570 253° West 421 484 40,000  Level FlightAware
13:26 36.8130 -94.0790 253° West 422 486 40,000  Level FlightAware
13:26 36.7890 -94.1770 253° West 422 486 40,000  Level FlightAware
13:27 36.7630 -94.2840 253° West 421 484 40,000  Level FlightAware
13:28 36.7390 -94.3790 253° West 421 484 40,000  Level FlightAware
13:28 36.7130 -94.4840 253° West 420 483 40,000  Level FlightAware
13:29 36.6890 -94.5800 253° West 424 488 40,000  Level FlightAware
13:30 36.6680 -94.6640 253° West 425 489 40,000 -420 Level FlightAware
13:30 36.6400 -94.7720 252° West 427 491 39,500 -840 Descending FlightAware
13:31 36.6150 -94.8740 253° West 425 489 38,800 -1,020 Descending FlightAware
13:32 36.5900 -94.9710 252° West 422 486 38,100 -1,020 Descending FlightAware
13:33 36.5650 -95.0670 252° West 419 482 37,400 -1,020 Descending FlightAware
13:33 36.5430 -95.1560 253° West 419 482 36,800 -960 Descending FlightAware
13:34 36.5170 -95.2560 252° West 419 482 36,100 -900 Descending FlightAware
13:35 36.4930 -95.3480 252° West 427 491 35,600 -900 Descending FlightAware
13:35 36.4660 -95.4540 252° West 433 498 34,900 -1,020 Descending FlightAware
13:36 36.4410 -95.5470 252° West 432 497 34,200 -1,080 Descending FlightAware
13:37 36.4170 -95.6410 252° West 431 496 33,500 -900 Descending FlightAware
13:38 36.3890 -95.7480 252° West 436 502 32,900 -1,860 Descending FlightAware
13:38 36.3510 -95.8930 252° West 441 507 30,300 -1,800 Descending FlightAware
13:39 36.3190 -96.0090 251° West 430 495 29,600 -1,200 Descending FlightAware
13:40 36.2940 -96.1050 252° West 400 460 28,500 -1,680 Descending FlightAware
13:41 36.2740 -96.1830 252° West 394 453 27,600 -2,040 Descending FlightAware
13:41 36.2450 -96.2890 251° West 414 476 25,700 -2,280 Descending FlightAware
13:42 36.2200 -96.3840 252° West 424 488 24,200 -1,200 Descending FlightAware
13:43 36.1930 -96.4790 251° West 425 489 24,000 -1,440 Descending FlightAware
13:44 36.1510 -96.6340 251° West 415 478 21,500 -1,620 Descending FlightAware
13:44 36.1380 -96.6820 251° West 415 478 21,500  Level FlightAware
13:46 36.1040 -96.8040 251° West 415 478 21,500  Level FlightAware
13:46 36.0850 -96.8730 251° West 415 478 21,500  Level FlightAware
13:47 36.0590 -96.9660 251° West 415 478 21,500 -5,280 Level FlightAware
13:48 36.0228 -97.1092 251° West 364 419 11,400 -5,640 Descending Kansas City Center
13:49 35.9728 -97.2108 239° Southwest 296 341 9,500 -1,800 Descending Kansas City Center
13:50 35.9222 -97.2744 226° Southwest 268 308 7,800 -1,500 Descending Kansas City Center
13:51 35.8750 -97.3344 226° Southwest 251 289 6,400 -900 Descending Kansas City Center
13:52 35.8283 -97.3922 225° Southwest 242 278 6,000 -420 Descending Kansas City Center
13:53 35.7803 -97.4536 226° Southwest 247 284 5,600 -780 Descending Kansas City Center
13:54 35.7322 -97.5142 226° Southwest 248 285 4,400 -1,260 Descending Kansas City Center
13:55 35.6839 -97.5742 225° Southwest 222 255 3,100 -720 Descending Kansas City Center
13:56 35.6522 -97.6133 225° Southwest 190 219 3,000 -120 Descending Kansas City Center
13:57 35.6247 -97.6467 225° Southwest 162 186 2,900 -420 Descending Kansas City Center
13:58 35.5925 -97.6461 179° South 130 150 2,200 -540 Descending Kansas City Center
13:59 35.5656 -97.6456 179° South 108 124 1,800 -420 Descending Kansas City Center